Time;durP1;ratioP1;P1;durP2;ratioP2;P2;SDS_P1;SDS_P2;PMS_P1;PMS_P2;Temp;Humidity;BMP_temperature;BMP_pressure;BME280_temperature;BME280_humidity;BME280_pressure;Samples;Min_cycle;Max_cycle;Signal;HPM_P1;HPM_P2
2022/04/12 00:02:58;;;;;;;8.35;3.10;;;;;;;4.66;nan;99702.72;10395615;28;20057;-70
2022/04/12 00:08:00;;;;;;;6.60;2.60;;;;;;;4.65;nan;99693.19;10403570;28;20041;-69
2022/04/12 00:13:02;;;;;;;10.68;3.63;;;;;;;4.64;nan;99694.03;10403308;28;20046;-70
2022/04/12 00:23:25;;;;;;;8.77;3.92;;;;;;;4.64;nan;99696.63;10399220;28;20091;-69
2022/04/12 00:28:27;;;;;;;7.78;2.47;;;;;;;4.63;nan;99681.03;10402045;28;20045;-70
2022/04/12 00:33:29;;;;;;;6.30;2.45;;;;;;;4.63;nan;99691.41;10412434;28;20073;-69
2022/04/12 00:38:35;;;;;;;8.57;2.70;;;;;;;4.62;nan;99694.84;10401612;28;20501;-69
2022/04/12 00:43:38;;;;;;;6.38;2.47;;;;;;;4.63;nan;99691.41;10395139;28;20053;-70
2022/04/12 00:48:40;;;;;;;10.32;2.72;;;;;;;4.58;nan;99678.34;10401993;28;20049;-69
2022/04/12 00:53:41;;;;;;;5.35;2.53;;;;;;;4.56;nan;99670.53;10402042;28;20612;-70
2022/04/12 00:58:46;;;;;;;5.82;2.22;;;;;;;4.56;nan;99669.63;10402174;28;20050;-69
2022/04/12 01:03:48;;;;;;;8.38;3.08;;;;;;;4.54;nan;99671.31;10401383;28;20053;-69
2022/04/12 01:08:50;;;;;;;6.55;2.75;;;;;;;4.60;nan;99684.44;10395454;28;20042;-70
2022/04/12 01:13:52;;;;;;;5.57;2.65;;;;;;;4.58;nan;99683.53;10401158;28;20846;-70
2022/04/12 01:18:54;;;;;;;4.80;2.10;;;;;;;4.56;nan;99669.63;10395255;28;20473;-69
2022/04/12 01:24:03;;;;;;;7.05;2.38;;;;;;;4.54;nan;99666.13;10401105;28;20049;-69
2022/04/12 01:29:05;;;;;;;6.07;2.75;;;;;;;4.51;nan;99658.28;10393580;28;20056;-69
2022/04/12 01:34:06;;;;;;;6.15;2.42;;;;;;;4.46;nan;99647.81;10400116;28;20096;-69
2022/04/12 01:39:08;;;;;;;6.47;2.60;;;;;;;4.42;nan;99628.69;10400196;28;20445;-69
2022/04/12 01:44:10;;;;;;;10.43;2.70;;;;;;;4.42;nan;99620.06;10400166;28;20066;-69
2022/04/12 01:49:12;;;;;;;5.45;2.58;;;;;;;4.38;nan;99616.53;10400332;28;20057;-68
2022/04/12 01:54:13;;;;;;;6.20;2.47;;;;;;;4.41;nan;99626.97;10400678;28;20595;-69
2022/04/12 01:59:15;;;;;;;7.70;3.00;;;;;;;4.43;nan;99638.25;10393441;28;20131;-69
2022/04/12 02:04:16;;;;;;;6.55;2.75;;;;;;;4.48;nan;99655.63;10399774;28;20049;-69
2022/04/12 02:09:18;;;;;;;5.88;2.70;;;;;;;4.48;nan;99651.31;10393261;28;20053;-68
2022/04/12 02:14:20;;;;;;;9.00;2.60;;;;;;;4.48;nan;99651.31;10398618;28;20049;-69
2022/04/12 02:19:21;;;;;;;8.00;2.53;;;;;;;4.53;nan;99674.75;10399468;28;20084;-69
2022/04/12 02:24:23;;;;;;;7.65;3.17;;;;;;;4.53;nan;99680.78;10404576;28;20046;-70
2022/04/12 02:29:25;;;;;;;10.52;3.08;;;;;;;4.52;nan;99672.97;10391208;28;20420;-69
2022/04/12 02:34:26;;;;;;;7.47;3.22;;;;;;;4.57;nan;99695.59;10392622;28;20053;-69
2022/04/12 02:39:28;;;;;;;8.82;3.40;;;;;;;4.63;nan;99718.22;10398166;28;20041;-69
2022/04/12 02:44:30;;;;;;;10.85;3.33;;;;;;;4.59;nan;99706.00;10397350;28;20042;-70
2022/04/12 02:49:31;;;;;;;10.25;3.47;;;;;;;4.62;nan;99718.16;10397533;28;20045;-71
2022/04/12 02:54:33;;;;;;;8.63;3.35;;;;;;;4.60;nan;99708.63;10398601;28;20073;-69
2022/04/12 02:59:35;;;;;;;7.28;3.30;;;;;;;4.59;nan;99706.00;10397382;28;20073;-69
2022/04/12 03:04:36;;;;;;;7.72;3.28;;;;;;;4.56;nan;99691.28;10397274;28;20221;-69
2022/04/12 03:09:38;;;;;;;10.27;3.47;;;;;;;4.55;nan;99691.22;10390836;28;20053;-69
2022/04/12 03:14:40;;;;;;;9.40;3.92;;;;;;;4.52;nan;99689.44;10397241;28;20088;-70
2022/04/12 03:19:41;;;;;;;8.43;3.20;;;;;;;4.53;nan;99685.97;10396984;28;20459;-69
2022/04/12 03:24:45;;;;;;;10.40;3.42;;;;;;;4.48;nan;99666.88;10397525;28;20060;-70
2022/04/12 03:29:46;;;;;;;8.90;3.50;;;;;;;4.44;nan;99659.84;10396747;28;20045;-69
2022/04/12 03:34:50;;;;;;;13.60;3.78;;;;;;;4.38;nan;99628.59;10396514;28;20045;-69
2022/04/12 03:39:51;;;;;;;8.13;3.35;;;;;;;4.33;nan;99609.50;10395718;28;20059;-69
2022/04/12 03:44:53;;;;;;;11.45;4.38;;;;;;;4.32;nan;99612.91;10390418;28;20176;-70
2022/04/12 03:49:54;;;;;;;10.50;4.03;;;;;;;4.27;nan;99592.06;10396120;28;20104;-69
2022/04/12 03:54:56;;;;;;;7.38;3.38;;;;;;;4.23;nan;99583.38;10394849;28;20057;-68
2022/04/12 03:59:58;;;;;;;7.90;3.72;;;;;;;4.20;nan;99562.56;10404001;28;20049;-69
2022/04/12 04:04:59;;;;;;;14.02;4.20;;;;;;;4.18;nan;99553.00;10403513;28;20060;-69
2022/04/12 04:10:01;;;;;;;11.07;4.72;;;;;;;4.16;nan;99550.38;10403391;28;20497;-69
2022/04/12 04:15:05;;;;;;;9.88;3.92;;;;;;;4.20;nan;99572.03;10403783;28;20045;-68
2022/04/12 04:20:08;;;;;;;8.68;4.00;;;;;;;4.21;nan;99578.97;10403434;28;20085;-69
2022/04/12 04:25:13;;;;;;;12.98;4.38;;;;;;;4.19;nan;99557.34;10403187;28;20415;-68
2022/04/12 04:30:17;;;;;;;10.50;4.63;;;;;;;4.13;nan;99539.03;10402849;28;20055;-68
2022/04/12 04:35:19;;;;;;;9.15;4.22;;;;;;;4.11;nan;99539.00;10403806;28;20060;-69
2022/04/12 04:40:23;;;;;;;9.20;4.53;;;;;;;4.19;nan;99565.13;10402429;28;20045;-70
2022/04/12 04:45:24;;;;;;;11.45;4.25;;;;;;;4.16;nan;99558.13;10403710;28;20033;-68
2022/04/12 04:50:29;;;;;;;12.52;5.20;;;;;;;4.13;nan;99545.13;10402775;28;20049;-69
2022/04/12 04:55:38;;;;;;;11.38;5.03;;;;;;;4.17;nan;99561.59;10403137;28;20041;-70
2022/04/12 05:00:39;;;;;;;11.18;4.63;;;;;;;4.20;nan;99578.09;10412857;28;20042;-66
2022/04/12 05:05:41;;;;;;;10.18;4.68;;;;;;;4.27;nan;99609.34;10410489;28;20038;-66
2022/04/12 05:10:43;;;;;;;10.65;4.70;;;;;;;4.34;nan;99630.25;10402462;28;20037;-69
2022/04/12 05:15:45;;;;;;;10.27;4.45;;;;;;;4.41;nan;99663.25;10400070;28;20052;-69
2022/04/12 05:20:47;;;;;;;10.55;4.60;;;;;;;4.47;nan;99687.56;10399807;28;20708;-69
2022/04/12 05:25:52;;;;;;;9.43;4.10;;;;;;;4.53;nan;99711.91;10416039;28;20508;-68
2022/04/12 05:30:55;;;;;;;11.43;4.70;;;;;;;4.62;nan;99737.19;10409565;28;20490;-67
2022/04/12 05:35:57;;;;;;;9.88;4.40;;;;;;;4.71;nan;99785.81;10411916;28;20156;-68
2022/04/12 05:40:58;;;;;;;10.80;4.57;;;;;;;4.76;nan;99802.38;10408662;28;20127;-67
2022/04/12 05:46:00;;;;;;;10.45;4.32;;;;;;;4.82;nan;99825.88;10410054;28;20700;-68
2022/04/12 05:51:01;;;;;;;11.93;5.13;;;;;;;4.94;nan;99879.78;10409213;28;20393;-67
2022/04/12 05:56:03;;;;;;;10.98;4.78;;;;;;;5.05;nan;99914.66;10409710;28;20519;-69
2022/04/12 06:01:05;;;;;;;9.57;4.20;;;;;;;5.20;nan;99967.78;10406820;28;20037;-66
2022/04/12 06:06:06;;;;;;;11.02;4.75;;;;;;;5.27;nan;99998.25;10404778;28;20264;-67
2022/04/12 06:11:08;;;;;;;11.32;4.75;;;;;;;5.29;nan;100018.22;10402549;28;20605;-68
2022/04/12 06:16:10;;;;;;;12.07;4.80;;;;;;;5.42;nan;100066.16;10403820;28;20132;-68
2022/04/12 06:21:12;;;;;;;11.55;4.55;;;;;;;5.56;nan;100114.97;10400921;28;20041;-67
2022/04/12 06:26:14;;;;;;;13.40;4.75;;;;;;;5.69;nan;100162.94;10405861;28;20647;-66
2022/04/12 06:31:16;;;;;;;14.10;5.03;;;;;;;5.72;nan;100189.88;10402205;28;20044;-66
2022/04/12 06:36:18;;;;;;;10.63;4.60;;;;;;;5.78;nan;100205.63;10409790;28;20131;-68
2022/04/12 06:41:19;;;;;;;11.20;4.72;;;;;;;5.88;nan;100250.06;10405459;28;20583;-69
2022/04/12 06:46:21;;;;;;;15.43;5.35;;;;;;;6.01;nan;100293.75;10407327;28;20119;-69
2022/04/12 06:51:23;;;;;;;11.88;4.82;;;;;;;6.16;nan;100353.97;10397990;28;20578;-68
2022/04/12 06:56:27;;;;;;;14.48;4.35;;;;;;;6.39;nan;100443.88;10409188;28;20068;-66
2022/04/12 07:01:28;;;;;;;10.13;4.80;;;;;;;6.65;nan;100559.06;10404991;28;20570;-67
2022/04/12 07:06:30;;;;;;;10.48;4.88;;;;;;;7.82;nan;101015.84;10410990;28;20869;-67
2022/04/12 07:11:32;;;;;;;9.98;4.60;;;;;;;8.56;nan;101306.97;10404135;28;20523;-66
2022/04/12 07:16:33;;;;;;;10.77;4.78;;;;;;;8.85;nan;101426.31;10407117;28;20912;-66
2022/04/12 07:21:35;;;;;;;10.65;4.18;;;;;;;9.58;nan;101721.53;10404240;28;20048;-67
2022/04/12 07:26:37;;;;;;;10.15;4.45;;;;;;;9.72;nan;101780.44;10405015;28;20041;-67
2022/04/12 07:31:39;;;;;;;8.10;4.32;;;;;;;10.01;nan;101898.38;10412948;28;20120;-68
2022/04/12 07:36:47;;;;;;;8.77;4.28;;;;;;;10.41;nan;102061.31;10413789;28;20378;-66
2022/04/12 07:41:49;;;;;;;8.98;4.18;;;;;;;11.11;nan;102350.47;10413771;28;20467;-66
2022/04/12 07:46:51;;;;;;;9.30;4.30;;;;;;;11.66;nan;102575.66;10413624;28;20034;-68
2022/04/12 07:51:53;;;;;;;10.02;4.13;;;;;;;11.66;nan;102569.47;10410831;28;20151;-68
2022/04/12 07:56:55;;;;;;;11.77;4.82;;;;;;;11.55;nan;102520.94;10410860;28;20038;-66
2022/04/12 08:01:56;;;;;;;9.98;4.40;;;;;;;11.16;nan;102369.88;10414016;28;20594;-65
2022/04/12 08:06:58;;;;;;;11.98;4.72;;;;;;;10.90;nan;102271.84;10414170;28;20959;-68
2022/04/12 08:12:00;;;;;;;9.48;4.18;;;;;;;10.74;nan;102191.78;10417942;28;20045;-65
2022/04/12 08:17:02;;;;;;;9.50;4.00;;;;;;;11.09;nan;102333.78;10410965;28;20033;-65
2022/04/12 08:22:04;;;;;;;8.63;4.43;;;;;;;11.29;nan;102424.63;10414364;28;20045;-67
2022/04/12 08:27:10;;;;;;;11.65;4.78;;;;;;;11.75;nan;102603.09;10411932;28;20127;-66
2022/04/12 08:32:12;;;;;;;9.70;4.82;;;;;;;11.53;nan;102514.72;10408490;28;20048;-66
2022/04/12 08:37:13;;;;;;;9.32;4.20;;;;;;;11.67;nan;102573.91;10414963;28;20120;-68
2022/04/12 08:42:15;;;;;;;9.85;4.90;;;;;;;11.56;nan;102518.38;10403556;28;20049;-65
2022/04/12 08:47:20;;;;;;;11.13;4.28;;;;;;;11.94;nan;102680.91;10412823;28;20124;-65
2022/04/12 08:52:23;;;;;;;9.13;3.97;;;;;;;12.36;nan;102851.63;10411481;28;20048;-67
2022/04/12 08:57:25;;;;;;;10.43;4.75;;;;;;;13.17;nan;103174.09;10405832;28;20063;-69
2022/04/12 09:02:28;;;;;;;9.85;4.13;;;;;;;13.97;nan;103518.22;10413039;28;20160;-67
2022/04/12 09:07:31;;;;;;;10.23;4.07;;;;;;;14.54;nan;103753.66;10411838;28;20053;-70
2022/04/12 09:12:34;;;;;;;9.35;4.50;;;;;;;14.76;nan;103842.69;10407511;28;20073;-67
2022/04/12 09:17:39;;;;;;;9.80;4.10;;;;;;;14.91;nan;103911.13;10411211;28;20045;-69
2022/04/12 09:22:41;;;;;;;13.77;4.70;;;;;;;15.11;nan;103986.84;10414665;28;20041;-69
2022/04/12 09:27:49;;;;;;;15.00;5.53;;;;;;;14.87;nan;103875.75;10417649;28;20139;-67
2022/04/12 09:32:51;;;;;;;10.57;4.55;;;;;;;15.24;nan;104037.63;10413268;28;20045;-67
2022/04/12 09:37:52;;;;;;;9.43;4.93;;;;;;;15.05;nan;103951.38;10418937;28;20436;-67
2022/04/12 09:42:57;;;;;;;9.43;4.60;;;;;;;15.45;nan;104115.25;10415110;28;20416;-68
2022/04/12 09:48:02;;;;;;;11.38;4.97;;;;;;;15.49;nan;104132.16;10401400;28;20048;-68
2022/04/12 09:53:37;;;;;;;9.82;4.55;;;;;;;15.57;nan;104159.88;10375692;28;20618;-69
2022/04/12 09:58:41;;;;;;;11.38;4.75;;;;;;;16.00;nan;104339.13;10407504;28;20104;-68
2022/04/12 10:03:45;;;;;;;8.40;4.43;;;;;;;16.08;nan;104380.06;10404488;28;20045;-67
2022/04/12 10:08:54;;;;;;;13.30;4.68;;;;;;;15.89;nan;104288.31;10400634;28;20049;-66
2022/04/12 10:14:00;;;;;;;12.40;4.88;;;;;;;15.82;nan;104254.53;10410792;28;20049;-66
2022/04/12 10:19:06;;;;;;;10.32;4.93;;;;;;;16.44;nan;104512.38;10408417;28;20041;-69
2022/04/12 10:24:12;;;;;;;13.10;4.22;;;;;;;16.05;nan;104342.88;10406349;28;20274;-69
2022/04/12 10:29:15;;;;;;;10.70;5.30;;;;;;;15.87;nan;104262.69;10392640;28;20778;-69
2022/04/12 10:34:17;;;;;;;9.77;4.32;;;;;;;15.96;nan;104288.63;10408364;28;20068;-67
2022/04/12 10:39:21;;;;;;;12.27;5.43;;;;;;;16.19;nan;104387.63;10402862;28;20048;-69
2022/04/12 10:44:23;;;;;;;12.27;5.43;;;;;;;16.25;nan;104403.81;10403764;28;20553;-70
2022/04/12 10:49:25;;;;;;;11.43;5.32;;;;;;;16.77;nan;104622.53;10406035;28;20048;-68
2022/04/12 10:54:32;;;;;;;15.30;5.97;;;;;;;16.78;nan;104619.03;10413574;28;20487;-69
2022/04/12 10:59:40;;;;;;;10.15;5.18;;;;;;;16.59;nan;104543.09;10407029;28;20076;-69
2022/04/12 11:04:41;;;;;;;12.73;5.97;;;;;;;16.52;nan;104498.63;10404906;28;20037;-68
2022/04/12 11:10:05;;;;;;;12.13;5.50;;;;;;;16.70;nan;104573.66;10405495;28;20740;-70
2022/04/12 11:15:19;;;;;;;11.30;5.50;;;;;;;16.86;nan;104640.59;10415290;28;20072;-69
2022/04/12 11:20:22;;;;;;;12.57;5.47;;;;;;;16.82;nan;104609.53;10406376;28;20429;-70
2022/04/12 11:25:26;;;;;;;10.35;5.30;;;;;;;17.20;nan;104773.06;10398896;28;20133;-68
2022/04/12 11:30:28;;;;;;;15.05;6.25;;;;;;;17.28;nan;104789.41;10400544;28;20048;-67
2022/04/12 11:35:30;;;;;;;14.45;6.85;;;;;;;17.61;nan;104927.13;10396888;28;21118;-67
2022/04/12 11:40:32;;;;;;;11.93;5.82;;;;;;;17.77;nan;104996.03;10392141;28;20044;-67
2022/04/12 11:45:33;;;;;;;12.07;5.13;;;;;;;17.49;nan;104863.81;10373944;28;20167;-67
2022/04/12 11:50:35;;;;;;;10.73;5.35;;;;;;;17.86;nan;105016.81;10398388;28;20395;-68
2022/04/12 11:56:01;;;;;;;17.45;6.25;;;;;;;17.91;nan;105026.00;10393593;28;20132;-69
2022/04/12 12:01:02;;;;;;;11.68;5.28;;;;;;;18.10;nan;105107.44;10399357;28;20093;-71
2022/04/12 12:06:07;;;;;;;12.52;6.15;;;;;;;18.02;nan;105072.56;10406578;28;20388;-70
2022/04/12 12:11:10;;;;;;;13.55;6.45;;;;;;;18.29;nan;105172.13;10424772;28;20060;-67
2022/04/12 12:16:14;;;;;;;12.50;5.88;;;;;;;18.10;nan;105086.22;10425718;28;20047;-68
2022/04/12 12:21:18;;;;;;;12.68;6.32;;;;;;;18.60;nan;105290.56;10428425;28;20041;-67
2022/04/12 12:26:28;;;;;;;11.10;5.47;;;;;;;18.35;nan;105172.47;10417612;28;20064;-69
2022/04/12 12:31:43;;;;;;;12.50;6.20;;;;;;;18.50;nan;105234.34;10430187;28;20451;-71
2022/04/12 12:36:49;;;;;;;13.50;5.70;;;;;;;18.76;nan;105335.72;10414226;28;20056;-70
2022/04/12 12:41:56;;;;;;;13.27;6.07;;;;;;;18.94;nan;105401.38;10411830;28;20033;-69
2022/04/12 12:47:02;;;;;;;15.63;6.43;;;;;;;18.58;nan;105240.06;10412230;28;20053;-71
2022/04/12 12:52:07;;;;;;;11.88;6.05;;;;;;;18.42;nan;105166.66;10414357;28;20116;-71
2022/04/12 12:57:09;;;;;;;13.05;6.40;;;;;;;18.72;nan;105297.50;10416210;28;20073;-68
2022/04/12 13:02:12;;;;;;;13.90;6.55;;;;;;;18.52;nan;105198.16;10414295;28;20057;-69
2022/04/12 13:07:14;;;;;;;13.90;5.75;;;;;;;18.83;nan;105327.28;10417258;28;20571;-70
2022/04/12 13:12:17;;;;;;;14.65;6.53;;;;;;;18.61;nan;105223.41;10409213;28;20512;-71
2022/04/12 13:17:19;;;;;;;13.95;6.13;;;;;;;18.81;nan;105306.78;10408024;28;20223;-71
2022/04/12 13:22:20;;;;;;;13.05;6.72;;;;;;;18.75;nan;105267.53;10410162;28;20043;-70
2022/04/12 13:27:23;;;;;;;14.23;5.75;;;;;;;18.54;nan;105180.59;10416042;28;20139;-69
2022/04/12 13:32:25;;;;;;;13.07;6.88;;;;;;;18.13;nan;104990.00;10413103;28;20431;-67
2022/04/12 13:37:26;;;;;;;15.02;7.22;;;;;;;18.20;nan;105022.22;10417908;28;20499;-68
2022/04/12 13:42:28;;;;;;;14.77;6.20;;;;;;;18.31;nan;105059.94;10402074;28;20440;-69
2022/04/12 13:47:30;;;;;;;13.52;6.20;;;;;;;18.78;nan;105249.13;10400131;28;20045;-65
2022/04/12 13:52:32;;;;;;;13.38;6.00;;;;;;;19.23;nan;105438.41;10402495;28;21328;-68
2022/04/12 13:57:36;;;;;;;13.20;7.30;;;;;;;19.18;nan;105404.44;10405855;28;20056;-68
2022/04/12 14:02:37;;;;;;;16.58;6.55;;;;;;;18.89;nan;105279.84;10402067;28;20045;-68
2022/04/12 14:07:39;;;;;;;13.82;7.10;;;;;;;19.08;nan;105347.25;10415778;28;20044;-69
2022/04/12 14:12:41;;;;;;;16.73;7.18;;;;;;;18.67;nan;105175.94;10409507;28;20041;-69
2022/04/12 14:17:42;;;;;;;15.55;6.63;;;;;;;18.76;nan;105197.66;10414077;28;20554;-71
2022/04/12 14:23:04;;;;;;;12.40;6.53;;;;;;;18.76;nan;105192.34;10405814;28;20512;-71
2022/04/12 14:28:08;;;;;;;12.20;5.82;;;;;;;18.52;nan;105075.16;10404419;28;20037;-71
2022/04/12 14:33:10;;;;;;;14.50;5.80;;;;;;;18.27;nan;104972.13;10407877;28;20558;-72
2022/04/12 14:38:12;;;;;;;12.65;6.07;;;;;;;18.55;nan;105089.53;10407741;28;20079;-69
2022/04/12 14:43:13;;;;;;;15.48;6.65;;;;;;;18.88;nan;105216.03;10416557;28;20041;-68
2022/04/12 14:48:16;;;;;;;14.30;6.00;;;;;;;18.92;nan;105220.66;10408459;28;20045;-69
2022/04/12 14:53:19;;;;;;;12.02;5.68;;;;;;;18.82;nan;105178.47;10410215;28;20045;-69
2022/04/12 14:58:27;;;;;;;13.55;6.00;;;;;;;18.79;nan;105157.97;10404577;28;20029;-68
2022/04/12 15:03:29;;;;;;;11.50;5.43;;;;;;;18.78;nan;105148.22;10405684;28;20046;-69
2022/04/12 15:08:31;;;;;;;13.60;5.97;;;;;;;18.77;nan;105138.41;10412813;28;20052;-71
2022/04/12 15:13:34;;;;;;;11.55;5.78;;;;;;;18.70;nan;105104.41;10420449;28;20049;-70
2022/04/12 15:18:36;;;;;;;19.73;6.22;;;;;;;18.93;nan;105189.69;10404242;28;20064;-71
2022/04/12 15:23:38;;;;;;;12.52;5.80;;;;;;;18.97;nan;105204.97;10407446;28;20514;-75
2022/04/12 15:28:40;;;;;;;11.25;5.30;;;;;;;18.74;nan;105103.75;10399786;28;21263;-70
2022/04/12 15:33:41;;;;;;;12.50;5.82;;;;;;;18.49;nan;104985.66;10400124;28;20045;-67
2022/04/12 15:38:49;;;;;;;13.60;5.38;;;;;;;18.26;nan;104888.09;10396061;28;20512;-67
2022/04/12 15:43:51;;;;;;;26.73;6.32;;;;;;;18.15;nan;104840.72;10394900;28;20132;-68
2022/04/12 15:48:52;;;;;;;11.63;5.72;;;;;;;17.99;nan;104769.19;10401893;28;20080;-68
2022/04/12 15:53:54;;;;;;;12.43;5.75;;;;;;;17.84;nan;104706.56;10415143;28;20033;-69
2022/04/12 15:58:57;;;;;;;16.50;6.47;;;;;;;17.88;nan;104706.69;10415711;28;20653;-69
2022/04/12 16:03:59;;;;;;;12.98;6.63;;;;;;;17.83;nan;104687.91;10413713;28;20068;-70
2022/04/12 16:09:00;;;;;;;14.55;6.60;;;;;;;17.97;nan;104745.22;10419246;28;20033;-69
2022/04/12 16:14:02;;;;;;;13.00;6.68;;;;;;;17.94;nan;104720.28;10411433;28;20047;-69
2022/04/12 16:19:03;;;;;;;15.27;7.45;;;;;;;17.97;nan;104733.69;10415639;28;20048;-69
2022/04/12 16:24:05;;;;;;;26.55;8.82;;;;;;;17.83;nan;104672.94;10411296;28;20037;-70
2022/04/12 16:29:07;;;;;;;13.98;6.93;;;;;;;17.72;nan;104609.63;10416262;28;20130;-69
2022/04/12 16:34:09;;;;;;;12.00;7.13;;;;;;;17.67;nan;104591.75;10399611;28;20067;-69
2022/04/12 16:39:11;;;;;;;27.08;8.27;;;;;;;17.72;nan;104605.22;10403141;28;20069;-68
2022/04/12 16:44:13;;;;;;;16.00;6.97;;;;;;;17.79;nan;104624.97;10407216;28;20053;-70
2022/04/12 16:49:15;;;;;;;14.23;7.35;;;;;;;17.94;nan;104691.13;10418810;28;20413;-70
2022/04/12 16:54:17;;;;;;;12.95;7.03;;;;;;;17.90;nan;104662.66;10419165;28;20415;-71
2022/04/12 16:59:18;;;;;;;10.68;6.13;;;;;;;17.81;nan;104626.88;10416088;28;20064;-72
2022/04/12 17:04:20;;;;;;;11.82;6.25;;;;;;;17.70;nan;104574.19;10411265;28;20522;-71
2022/04/12 17:09:23;;;;;;;15.05;6.95;;;;;;;17.57;nan;104519.69;10394314;28;20052;-70
2022/04/12 17:14:25;;;;;;;13.20;6.50;;;;;;;17.46;nan;104475.06;10410810;28;20075;-71
2022/04/12 17:19:27;;;;;;;11.15;6.15;;;;;;;17.30;nan;104393.06;10409931;28;20133;-70
2022/04/12 17:24:28;;;;;;;11.75;6.10;;;;;;;17.14;nan;104326.16;10406928;28;20048;-71
2022/04/12 17:29:30;;;;;;;11.85;5.95;;;;;;;16.99;nan;104260.97;10413265;28;20041;-70
2022/04/12 17:34:32;;;;;;;9.45;5.35;;;;;;;16.85;nan;104197.69;10420229;28;20586;-71
2022/04/12 17:39:34;;;;;;;12.07;5.88;;;;;;;16.75;nan;104159.34;10410358;28;20631;-70
2022/04/12 17:44:36;;;;;;;12.77;5.18;;;;;;;16.61;nan;104100.47;10408698;28;20499;-70
2022/04/12 17:49:38;;;;;;;12.15;5.85;;;;;;;16.48;nan;104046.97;10416143;28;20045;-71
2022/04/12 17:54:40;;;;;;;11.20;5.70;;;;;;;16.38;nan;103998.06;10419476;28;20111;-71
2022/04/12 17:59:41;;;;;;;9.55;5.55;;;;;;;16.28;nan;103957.09;10412481;28;20036;-71
2022/04/12 18:04:43;;;;;;;10.45;5.57;;;;;;;16.17;nan;103905.47;10415319;28;20405;-72
2022/04/12 18:09:45;;;;;;;11.35;5.47;;;;;;;16.03;nan;103844.06;10415178;28;20041;-71
2022/04/12 18:14:50;;;;;;;10.68;5.72;;;;;;;15.89;nan;103786.25;10409140;28;20071;-71
2022/04/12 18:19:52;;;;;;;10.43;5.13;;;;;;;15.83;nan;103758.66;10418629;28;20040;-71
2022/04/12 18:24:59;;;;;;;9.85;5.38;;;;;;;15.71;nan;103704.44;10418694;28;20065;-70
2022/04/12 18:30:02;;;;;;;10.43;4.75;;;;;;;15.64;nan;103673.34;10411157;28;20472;-71
2022/04/12 18:35:08;;;;;;;15.88;5.93;;;;;;;15.55;nan;103639.50;10413709;28;20045;-70
2022/04/12 18:40:10;;;;;;;9.52;5.43;;;;;;;15.50;nan;103617.28;10404302;28;20465;-71
2022/04/12 18:45:12;;;;;;;12.07;5.53;;;;;;;15.43;nan;103577.34;10402697;28;20071;-71
2022/04/12 18:50:15;;;;;;;9.27;5.25;;;;;;;15.35;nan;103540.06;10404490;28;20044;-72
2022/04/12 18:55:18;;;;;;;10.38;5.43;;;;;;;15.33;nan;103537.38;10412575;28;20041;-72
2022/04/12 19:00:19;;;;;;;10.60;5.35;;;;;;;15.28;nan;103522.16;10401030;28;20507;-71
2022/04/12 19:05:22;;;;;;;10.38;5.30;;;;;;;15.25;nan;103499.19;10412566;28;20044;-72
2022/04/12 19:10:25;;;;;;;11.05;5.90;;;;;;;15.10;nan;103435.22;10410241;28;20048;-71
2022/04/12 19:15:26;;;;;;;10.85;5.88;;;;;;;15.03;nan;103408.59;10408798;28;20048;-71
2022/04/12 19:20:28;;;;;;;10.40;5.50;;;;;;;14.94;nan;103368.66;10412249;28;20512;-72
2022/04/12 19:25:30;;;;;;;9.13;5.30;;;;;;;14.85;nan;103329.59;10409101;28;20555;-72
2022/04/12 19:30:32;;;;;;;10.90;5.18;;;;;;;14.77;nan;103293.22;10422963;28;20041;-71
2022/04/12 19:35:34;;;;;;;12.77;5.50;;;;;;;14.62;nan;103230.22;10406508;28;20045;-70
2022/04/12 19:40:36;;;;;;;10.20;5.38;;;;;;;14.49;nan;103174.34;10404927;28;20132;-71
2022/04/12 19:45:38;;;;;;;10.05;5.20;;;;;;;14.39;nan;103131.75;10407013;28;20524;-71
2022/04/12 19:50:40;;;;;;;10.50;5.30;;;;;;;14.39;nan;103126.50;10414676;28;20115;-72
2022/04/12 19:55:42;;;;;;;10.80;5.50;;;;;;;14.39;nan;103131.75;10411969;28;20092;-72
2022/04/12 20:00:44;;;;;;;9.82;5.40;;;;;;;14.35;nan;103111.38;10428813;28;20060;-70
2022/04/12 20:05:46;;;;;;;10.70;5.40;;;;;;;14.24;nan;103071.44;10420194;28;20049;-69
2022/04/12 20:10:48;;;;;;;10.48;5.47;;;;;;;14.11;nan;103023.56;10424348;28;20053;-71
2022/04/12 20:15:54;;;;;;;10.30;5.43;;;;;;;14.16;nan;103034.28;10420165;28;20067;-69
2022/04/12 20:20:55;;;;;;;11.02;5.95;;;;;;;14.12;nan;103013.91;10407857;28;20044;-71
2022/04/12 20:25:58;;;;;;;13.02;5.05;;;;;;;14.11;nan;103004.19;10412591;28;20052;-71
2022/04/12 20:31:00;;;;;;;13.10;5.63;;;;;;;13.96;nan;102952.75;10403489;28;20468;-71
2022/04/12 20:36:01;;;;;;;9.60;5.07;;;;;;;13.91;nan;102927.06;10398904;28;20091;-71
2022/04/12 20:41:03;;;;;;;9.52;5.05;;;;;;;13.84;nan;102897.00;10423202;28;20036;-71
2022/04/12 20:46:04;;;;;;;10.07;5.10;;;;;;;13.69;nan;102835.84;10413221;28;20037;-71
2022/04/12 20:51:07;;;;;;;11.82;5.30;;;;;;;13.60;nan;102797.84;10410474;28;20062;-71
2022/04/12 20:56:08;;;;;;;11.25;5.75;;;;;;;13.49;nan;102759.69;10407519;28;20041;-71
2022/04/12 21:01:10;;;;;;;11.70;5.70;;;;;;;13.44;nan;102733.19;10402423;28;20041;-71
2022/04/12 21:06:13;;;;;;;12.55;5.63;;;;;;;13.35;nan;102696.03;10424907;28;20146;-71
2022/04/12 21:11:15;;;;;;;10.75;5.40;;;;;;;13.31;nan;102685.31;10412184;28;20072;-70
2022/04/12 21:16:16;;;;;;;13.38;5.45;;;;;;;13.19;nan;102633.16;10401895;28;20056;-70
2022/04/12 21:21:18;;;;;;;10.68;4.97;;;;;;;13.05;nan;102575.69;10407130;28;20052;-71
2022/04/12 21:26:20;;;;;;;9.57;5.22;;;;;;;12.95;nan;102528.00;10408403;28;20047;-71
2022/04/12 21:31:22;;;;;;;13.35;5.50;;;;;;;12.96;nan;102540.31;10407928;28;20076;-70
2022/04/12 21:36:24;;;;;;;12.45;6.03;;;;;;;12.80;nan;102478.38;10402937;28;20116;-70
2022/04/12 21:41:28;;;;;;;11.88;5.30;;;;;;;12.79;nan;102464.38;10407384;28;20081;-70
2022/04/12 21:46:30;;;;;;;10.18;5.40;;;;;;;12.68;nan;102423.66;10401589;28;20061;-71
2022/04/12 21:51:32;;;;;;;10.18;5.50;;;;;;;12.58;nan;102384.75;10400437;28;20139;-70
2022/04/12 21:56:35;;;;;;;14.77;5.53;;;;;;;12.53;nan;102364.47;10395120;28;20042;-69
2022/04/12 22:01:36;;;;;;;11.07;5.53;;;;;;;12.42;nan;102321.19;10406537;28;20326;-68
2022/04/12 22:06:38;;;;;;;10.98;5.50;;;;;;;12.35;nan;102287.66;10417425;28;20041;-69
2022/04/12 22:11:40;;;;;;;12.43;5.28;;;;;;;12.32;nan;102282.31;10413060;28;20055;-71
2022/04/12 22:16:42;;;;;;;9.70;5.50;;;;;;;12.26;nan;102248.84;10413839;28;20056;-70
2022/04/12 22:21:44;;;;;;;11.95;5.40;;;;;;;12.19;nan;102226.75;10405259;28;20056;-70
2022/04/12 22:26:46;;;;;;;9.40;4.55;;;;;;;12.14;nan;102209.94;10407661;28;20071;-71
2022/04/12 22:31:48;;;;;;;11.48;4.97;;;;;;;12.10;nan;102189.69;10408934;28;20728;-71
2022/04/12 22:36:49;;;;;;;11.98;5.00;;;;;;;12.05;nan;102172.00;10417737;28;20042;-71
2022/04/12 22:41:51;;;;;;;10.20;4.70;;;;;;;11.98;nan;102144.63;10409565;28;20056;-71
2022/04/12 22:46:53;;;;;;;9.27;4.45;;;;;;;11.96;nan;102131.47;10399231;28;20429;-71
2022/04/12 22:51:54;;;;;;;10.32;4.50;;;;;;;12.00;nan;102153.47;10402030;28;20040;-70
2022/04/12 22:56:56;;;;;;;10.00;5.05;;;;;;;12.04;nan;102163.25;10400667;28;20073;-71
2022/04/12 23:01:57;;;;;;;8.40;4.28;;;;;;;11.99;nan;102146.44;10397499;28;20046;-70
2022/04/12 23:06:59;;;;;;;10.32;4.57;;;;;;;11.94;nan;102116.53;10409325;28;20087;-70
2022/04/12 23:12:01;;;;;;;11.18;4.45;;;;;;;11.87;nan;102093.50;10398398;28;20049;-71
2022/04/12 23:17:03;;;;;;;9.80;4.38;;;;;;;11.86;nan;102092.63;10407155;28;20069;-71
2022/04/12 23:22:05;;;;;;;8.68;4.25;;;;;;;11.84;nan;102082.06;10402063;28;20401;-70
2022/04/12 23:27:06;;;;;;;9.02;4.32;;;;;;;11.87;nan;102096.13;10404951;28;20048;-70
2022/04/12 23:32:08;;;;;;;9.07;4.07;;;;;;;11.81;nan;102068.84;10417486;28;20056;-71
2022/04/12 23:37:09;;;;;;;9.15;4.75;;;;;;;11.78;nan;102063.47;10411355;28;20106;-71
2022/04/12 23:42:29;;;;;;;11.43;4.57;;;;;;;11.73;nan;102037.94;10406436;28;20371;-71
2022/04/12 23:47:30;;;;;;;9.90;3.85;;;;;;;11.68;nan;102016.81;10402442;28;20042;-71